createdAt,value
2022-09-14T00:01:21.531Z,18.561707
2022-09-14T00:02:11.441Z,18.561707
2022-09-14T00:03:20.179Z,18.561707
2022-09-14T00:04:27.827Z,18.551636
2022-09-14T00:05:37.632Z,18.531494
2022-09-14T00:06:46.378Z,18.531494
2022-09-14T00:07:55.157Z,18.521423
2022-09-14T00:09:04.900Z,18.531494
2022-09-14T00:10:14.623Z,18.521423
2022-09-14T00:11:24.325Z,18.501282
2022-09-14T00:12:34.267Z,18.491211
2022-09-14T00:13:42.141Z,18.491211
2022-09-14T00:14:51.778Z,18.471069
2022-09-14T00:16:00.507Z,18.471069
2022-09-14T00:17:10.274Z,18.450928
2022-09-14T00:18:20.072Z,18.450928
2022-09-14T00:19:27.804Z,18.471069
2022-09-14T00:20:37.543Z,18.450928
2022-09-14T00:21:46.351Z,18.450928
2022-09-14T00:22:55.185Z,18.450928
2022-09-14T00:24:04.953Z,18.450928
2022-09-14T00:25:13.673Z,18.450928
2022-09-14T00:26:22.592Z,18.440857
2022-09-14T00:27:32.358Z,18.450928
2022-09-14T00:28:41.181Z,18.440857
2022-09-14T00:29:51.072Z,18.440857
2022-09-14T00:30:59.852Z,18.440857
2022-09-14T00:32:12.473Z,18.450928
2022-09-14T00:33:22.161Z,18.471069
2022-09-14T00:34:31.925Z,18.491211
2022-09-14T00:35:40.710Z,18.471069
2022-09-14T00:36:50.512Z,18.491211
2022-09-14T00:37:59.220Z,18.471069
2022-09-14T00:39:08.989Z,18.450928
2022-09-14T00:40:18.806Z,18.440857
2022-09-14T00:41:28.619Z,18.471069
2022-09-14T00:42:38.371Z,18.450928
2022-09-14T00:43:47.176Z,18.450928
2022-09-14T00:44:56.916Z,18.450928
2022-09-14T00:46:05.707Z,18.450928
2022-09-14T00:47:14.436Z,18.440857
2022-09-14T00:48:24.173Z,18.471069
2022-09-14T00:49:32.919Z,18.471069
2022-09-14T00:50:42.656Z,18.471069
2022-09-14T00:51:51.395Z,18.450928
2022-09-14T00:52:59.160Z,18.450928
2022-09-14T00:54:08.896Z,18.450928
2022-09-14T00:55:16.641Z,18.450928
2022-09-14T00:56:25.407Z,18.440857
2022-09-14T00:57:35.156Z,18.450928
2022-09-14T00:58:44.982Z,18.450928
2022-09-14T00:59:54.741Z,18.471069
2022-09-14T01:01:03.621Z,18.471069
2022-09-14T01:02:12.446Z,18.491211
2022-09-14T01:03:22.058Z,18.501282
2022-09-14T01:04:29.914Z,18.521423
2022-09-14T01:05:39.609Z,18.491211
2022-09-14T01:06:48.354Z,18.491211
2022-09-14T01:07:57.176Z,18.471069
2022-09-14T01:09:06.937Z,18.471069
2022-09-14T01:10:15.817Z,18.471069
2022-09-14T01:11:24.596Z,18.450928
2022-09-14T01:12:34.366Z,18.450928
2022-09-14T01:13:42.064Z,18.450928
2022-09-14T01:14:50.775Z,18.430786
2022-09-14T01:16:00.691Z,18.410645
2022-09-14T01:17:09.319Z,18.380432
2022-09-14T01:18:19.346Z,18.370361
2022-09-14T01:19:29.128Z,18.35022
2022-09-14T01:20:37.805Z,18.35022
2022-09-14T01:21:47.534Z,18.35022
2022-09-14T01:22:56.264Z,18.35022
2022-09-14T01:24:06.007Z,18.340149
2022-09-14T01:25:15.738Z,18.340149
2022-09-14T01:26:23.449Z,18.340149
2022-09-14T01:27:33.248Z,18.340149
2022-09-14T01:28:42.075Z,18.330078
2022-09-14T01:29:50.875Z,18.330078
2022-09-14T01:31:00.586Z,18.289795
2022-09-14T01:32:09.295Z,18.289795
2022-09-14T01:33:19.018Z,18.279724
2022-09-14T01:34:28.790Z,18.259583
2022-09-14T01:35:36.488Z,18.259583
2022-09-14T01:36:46.261Z,18.279724
2022-09-14T01:37:56.131Z,18.279724
2022-09-14T01:39:04.890Z,18.279724
2022-09-14T01:40:14.678Z,18.279724
2022-09-14T01:41:22.298Z,18.279724
2022-09-14T01:42:31.040Z,18.249512
2022-09-14T01:43:40.807Z,18.22937
2022-09-14T01:44:50.644Z,18.22937
2022-09-14T01:46:00.491Z,18.249512
2022-09-14T01:47:10.187Z,18.199158
2022-09-14T01:48:18.870Z,18.199158
2022-09-14T01:49:28.633Z,18.189087
2022-09-14T01:50:43.070Z,18.179016
2022-09-14T01:51:51.755Z,18.158875
2022-09-14T01:53:01.451Z,18.158875
2022-09-14T01:54:10.193Z,18.128662
2022-09-14T01:55:19.870Z,18.128662
2022-09-14T01:56:28.619Z,18.108521
2022-09-14T01:57:36.464Z,18.108521
2022-09-14T01:58:46.179Z,18.068237
2022-09-14T01:59:52.910Z,18.078308
2022-09-14T02:01:01.667Z,18.048096
2022-09-14T02:02:11.374Z,18.048096
2022-09-14T02:03:19.001Z,18.038025
2022-09-14T02:04:28.734Z,18.038025
2022-09-14T02:05:37.450Z,18.038025
2022-09-14T02:06:46.213Z,18.027954
2022-09-14T02:07:55.896Z,18.027954
2022-09-14T02:09:04.642Z,18.027954
2022-09-14T02:10:14.344Z,18.007812
2022-09-14T02:11:24.041Z,18.007812
2022-09-14T02:12:31.745Z,18.007812
2022-09-14T02:13:41.562Z,17.997742
2022-09-14T02:14:50.291Z,17.9776
2022-09-14T02:15:59.055Z,17.997742
2022-09-14T02:17:08.760Z,17.9776
2022-09-14T02:18:17.471Z,17.997742
2022-09-14T02:19:33.035Z,17.9776
2022-09-14T02:20:42.774Z,17.997742
2022-09-14T02:21:51.541Z,17.997742
2022-09-14T02:23:01.242Z,17.997742
2022-09-14T02:24:09.978Z,17.997742
2022-09-14T02:25:18.757Z,17.997742
2022-09-14T02:26:28.479Z,18.007812
2022-09-14T02:27:36.193Z,18.027954
2022-09-14T02:28:45.914Z,17.997742
2022-09-14T02:29:55.845Z,18.007812
2022-09-14T02:31:03.757Z,18.007812
2022-09-14T02:32:13.444Z,18.027954
2022-09-14T02:33:23.166Z,18.027954
2022-09-14T02:34:31.940Z,18.038025
2022-09-14T02:35:41.693Z,18.038025
2022-09-14T02:36:51.494Z,18.038025
2022-09-14T02:38:00.223Z,18.038025
2022-09-14T02:39:09.871Z,18.038025
2022-09-14T02:40:18.687Z,18.048096
2022-09-14T02:41:28.353Z,18.048096
2022-09-14T02:42:36.068Z,18.048096
2022-09-14T02:43:45.774Z,18.048096
2022-09-14T02:44:54.446Z,18.09845
2022-09-14T02:46:03.194Z,18.108521
2022-09-14T02:47:12.873Z,18.108521
2022-09-14T02:48:20.733Z,18.148804
2022-09-14T02:49:30.479Z,18.128662
2022-09-14T02:50:40.185Z,18.148804
2022-09-14T02:51:47.869Z,18.158875
2022-09-14T02:52:57.546Z,18.158875
2022-09-14T02:54:07.300Z,18.158875
2022-09-14T02:55:15.991Z,18.179016
2022-09-14T02:56:25.727Z,18.158875
2022-09-14T02:57:35.457Z,18.158875
2022-09-14T02:58:45.155Z,18.158875
2022-09-14T02:59:54.939Z,18.158875
2022-09-14T03:01:02.650Z,18.158875
2022-09-14T03:02:12.351Z,18.158875
2022-09-14T03:03:21.027Z,18.158875
2022-09-14T03:04:29.699Z,18.158875
2022-09-14T03:05:39.454Z,18.158875
2022-09-14T03:06:47.160Z,18.158875
2022-09-14T03:07:55.850Z,18.179016
2022-09-14T03:09:05.559Z,18.179016
2022-09-14T03:10:14.266Z,18.179016
2022-09-14T03:11:23.963Z,18.189087
2022-09-14T03:12:33.671Z,18.179016
2022-09-14T03:13:43.333Z,18.189087
2022-09-14T03:14:53.071Z,18.189087
2022-09-14T03:16:01.776Z,18.158875
2022-09-14T03:17:11.571Z,18.179016
2022-09-14T03:18:21.286Z,18.189087
2022-09-14T03:19:28.956Z,18.199158
2022-09-14T03:20:38.642Z,18.179016
2022-09-14T03:21:47.329Z,18.128662
2022-09-14T03:22:56.060Z,18.108521
2022-09-14T03:24:05.772Z,18.09845
2022-09-14T03:25:14.504Z,18.068237
2022-09-14T03:26:23.255Z,18.027954
2022-09-14T03:27:33.008Z,18.007812
2022-09-14T03:28:41.836Z,17.997742
2022-09-14T03:29:51.567Z,17.997742
2022-09-14T03:31:00.291Z,18.027954
2022-09-14T03:32:07.968Z,18.027954
2022-09-14T03:33:17.708Z,18.027954
2022-09-14T03:34:26.458Z,18.027954
2022-09-14T03:35:35.216Z,18.007812
2022-09-14T03:36:44.842Z,17.997742
2022-09-14T03:37:52.537Z,17.9776
2022-09-14T03:39:02.237Z,17.997742
2022-09-14T03:40:11.020Z,17.997742
2022-09-14T03:41:21.591Z,18.007812
2022-09-14T03:42:31.333Z,17.997742
2022-09-14T03:43:41.054Z,18.007812
2022-09-14T03:44:50.752Z,18.007812
2022-09-14T03:46:00.518Z,18.027954
2022-09-14T03:47:08.338Z,18.048096
2022-09-14T03:48:18.015Z,18.048096
2022-09-14T03:49:27.740Z,18.078308
2022-09-14T03:50:37.491Z,18.09845
2022-09-14T03:51:47.320Z,18.128662
2022-09-14T03:52:55.972Z,18.128662
2022-09-14T03:54:04.683Z,18.148804
2022-09-14T03:55:14.402Z,18.148804
2022-09-14T03:56:22.131Z,18.148804
2022-09-14T03:57:31.863Z,18.128662
2022-09-14T03:58:40.570Z,18.148804
2022-09-14T03:59:49.252Z,18.108521
2022-09-14T04:00:58.966Z,18.108521
2022-09-14T04:02:08.754Z,18.108521
2022-09-14T04:03:18.626Z,18.108521
2022-09-14T04:04:28.280Z,18.128662
2022-09-14T04:05:36.061Z,18.158875
2022-09-14T04:06:44.809Z,18.189087
2022-09-14T04:07:54.458Z,18.219299
2022-09-14T04:09:03.242Z,18.22937
2022-09-14T04:10:12.952Z,18.249512
2022-09-14T04:11:21.678Z,18.279724
2022-09-14T04:12:30.428Z,18.289795
2022-09-14T04:13:40.171Z,18.330078
2022-09-14T04:14:48.918Z,18.380432
2022-09-14T04:15:58.769Z,18.410645
2022-09-14T04:17:07.429Z,18.450928
2022-09-14T04:18:17.200Z,18.491211
2022-09-14T04:19:25.981Z,18.531494
2022-09-14T04:20:34.739Z,18.561707
2022-09-14T04:21:43.465Z,18.60199
2022-09-14T04:22:53.167Z,18.632202
2022-09-14T04:24:17.449Z,18.652344
2022-09-14T04:25:12.544Z,18.682556
2022-09-14T04:26:21.270Z,18.682556
2022-09-14T04:27:31.031Z,18.702698
2022-09-14T04:28:40.825Z,18.712769
2022-09-14T04:29:51.604Z,18.742981
2022-09-14T04:31:00.509Z,18.742981
2022-09-14T04:32:10.156Z,18.753052
2022-09-14T04:33:19.990Z,18.712769
2022-09-14T04:34:29.737Z,18.73291
2022-09-14T04:35:39.447Z,18.682556
2022-09-14T04:36:48.232Z,18.652344
2022-09-14T04:37:58.003Z,18.622131
2022-09-14T04:39:06.747Z,18.591919
2022-09-14T04:40:16.565Z,18.581848
2022-09-14T04:41:25.233Z,18.531494
2022-09-14T04:42:35.051Z,18.521423
2022-09-14T04:43:44.944Z,18.450928
2022-09-14T04:44:53.808Z,18.440857
2022-09-14T04:46:03.633Z,18.410645
2022-09-14T04:47:13.224Z,18.410645
2022-09-14T04:48:21.950Z,18.400574
2022-09-14T04:49:31.705Z,18.380432
2022-09-14T04:50:39.403Z,18.400574
2022-09-14T04:51:48.071Z,18.35022
2022-09-14T04:52:57.768Z,18.380432
2022-09-14T04:54:05.484Z,18.370361
2022-09-14T04:55:15.195Z,18.370361
2022-09-14T04:56:23.865Z,18.330078
2022-09-14T04:57:33.564Z,18.340149
2022-09-14T04:58:43.258Z,18.340149
2022-09-14T04:59:53.006Z,18.35022
2022-09-14T05:01:02.769Z,18.370361
2022-09-14T05:02:12.577Z,18.370361
2022-09-14T05:03:22.271Z,18.380432
2022-09-14T05:04:31.971Z,18.400574
2022-09-14T05:05:44.764Z,18.400574
2022-09-14T05:06:50.468Z,18.430786
2022-09-14T05:08:00.248Z,18.430786
2022-09-14T05:09:09.967Z,18.440857
2022-09-14T05:10:18.667Z,18.471069
2022-09-14T05:11:28.347Z,18.501282
2022-09-14T05:12:37.108Z,18.521423
2022-09-14T05:13:49.881Z,18.551636
2022-09-14T05:14:56.612Z,18.591919
2022-09-14T05:16:05.423Z,18.622131
2022-09-14T05:17:15.149Z,18.652344
2022-09-14T05:18:23.878Z,18.702698
2022-09-14T05:19:33.584Z,18.712769
2022-09-14T05:20:43.424Z,18.712769
2022-09-14T05:21:51.182Z,18.73291
2022-09-14T05:23:00.894Z,18.742981
2022-09-14T05:24:09.715Z,18.753052
2022-09-14T05:25:17.385Z,18.773193
2022-09-14T05:26:27.064Z,18.753052
2022-09-14T05:27:35.769Z,18.783264
2022-09-14T05:28:45.483Z,18.803406
2022-09-14T05:29:55.159Z,18.813477
2022-09-14T05:31:04.926Z,18.833618
2022-09-14T05:32:13.561Z,18.843689
2022-09-14T05:33:23.355Z,18.883972
2022-09-14T05:34:31.047Z,18.924255
2022-09-14T05:35:40.841Z,18.994751
2022-09-14T05:36:50.562Z,19.115601
2022-09-14T05:37:59.236Z,19.216309
2022-09-14T05:39:08.928Z,19.286804
2022-09-14T05:40:17.831Z,19.337158
2022-09-14T05:41:27.383Z,19.387512
2022-09-14T05:42:37.155Z,19.407654
2022-09-14T05:43:46.851Z,19.48822
2022-09-14T05:44:56.647Z,19.548645
2022-09-14T05:46:04.411Z,19.588928
2022-09-14T05:47:13.027Z,19.629211
2022-09-14T05:48:22.758Z,19.669495
2022-09-14T05:49:30.442Z,19.699707
2022-09-14T05:50:40.201Z,19.729919
2022-09-14T05:51:49.902Z,19.760132
2022-09-14T05:52:58.618Z,19.770203
2022-09-14T05:54:08.313Z,19.820557
2022-09-14T05:55:15.967Z,19.86084
2022-09-14T05:56:25.697Z,19.880981
2022-09-14T05:57:35.459Z,19.880981
2022-09-14T05:58:43.362Z,19.891052
2022-09-14T05:59:53.055Z,19.921265
2022-09-14T06:01:09.812Z,19.951477
2022-09-14T06:02:18.580Z,19.961548
2022-09-14T06:03:27.183Z,20.021973
2022-09-14T06:04:36.890Z,20.042114
2022-09-14T06:05:44.695Z,20.072327
2022-09-14T06:07:14.786Z,20.102539
2022-09-14T06:08:04.965Z,20.11261
2022-09-14T06:09:12.651Z,20.142822
2022-09-14T06:10:22.422Z,20.162964
2022-09-14T06:11:30.179Z,20.193176
2022-09-14T06:12:38.886Z,20.213318
2022-09-14T06:13:47.568Z,20.24353
2022-09-14T06:14:56.274Z,20.24353
2022-09-14T06:16:05.995Z,20.24353
2022-09-14T06:17:15.694Z,20.253601
2022-09-14T06:18:23.367Z,20.283813
2022-09-14T06:19:33.045Z,20.263672
2022-09-14T06:20:40.736Z,20.283813
2022-09-14T06:21:49.457Z,20.283813
2022-09-14T06:22:59.157Z,20.293884
2022-09-14T06:24:07.835Z,20.283813
2022-09-14T06:25:17.524Z,20.283813
2022-09-14T06:26:26.193Z,20.283813
2022-09-14T06:27:34.045Z,20.283813
2022-09-14T06:28:43.727Z,20.283813
2022-09-14T06:29:51.430Z,20.293884
2022-09-14T06:31:00.106Z,20.253601
2022-09-14T06:32:09.866Z,20.24353
2022-09-14T06:33:17.612Z,20.213318
2022-09-14T06:34:27.325Z,20.193176
2022-09-14T06:35:36.042Z,20.223389
2022-09-14T06:36:45.711Z,20.223389
2022-09-14T06:37:55.441Z,20.223389
2022-09-14T06:39:03.150Z,20.283813
2022-09-14T06:40:13.028Z,20.344238
2022-09-14T06:41:22.636Z,20.444946
2022-09-14T06:42:31.294Z,20.515442
2022-09-14T06:43:41.153Z,20.585938
2022-09-14T06:44:48.840Z,20.61615
2022-09-14T06:45:58.547Z,20.61615
2022-09-14T06:47:07.261Z,20.61615
2022-09-14T06:48:14.976Z,20.666504
2022-09-14T06:49:24.655Z,20.656433
2022-09-14T06:50:32.358Z,20.686646
2022-09-14T06:51:41.033Z,20.716858
2022-09-14T06:52:50.721Z,20.777283
2022-09-14T06:53:57.467Z,20.797424
2022-09-14T06:55:07.130Z,20.797424
2022-09-14T06:56:15.882Z,20.767212
2022-09-14T06:57:24.627Z,20.797424
2022-09-14T06:58:34.344Z,20.767212
2022-09-14T06:59:42.031Z,20.737
2022-09-14T07:00:51.711Z,20.696716
2022-09-14T07:02:01.438Z,20.666504
2022-09-14T07:03:10.281Z,20.61615
2022-09-14T07:04:19.878Z,20.545654
2022-09-14T07:05:28.587Z,20.404663
2022-09-14T07:06:37.285Z,20.36438
2022-09-14T07:07:46.999Z,20.283813
2022-09-14T07:08:55.733Z,20.263672
2022-09-14T07:10:04.476Z,20.253601
2022-09-14T07:11:14.169Z,20.24353
2022-09-14T07:12:23.900Z,20.213318
2022-09-14T07:13:33.742Z,20.24353
2022-09-14T07:14:42.462Z,20.253601
2022-09-14T07:15:51.201Z,20.314026
2022-09-14T07:17:00.966Z,20.374451
2022-09-14T07:18:08.719Z,20.414734
2022-09-14T07:19:17.478Z,20.434875
2022-09-14T07:20:27.189Z,20.444946
2022-09-14T07:21:34.914Z,20.465088
2022-09-14T07:22:44.587Z,20.475159
2022-09-14T07:23:53.279Z,20.4953
2022-09-14T07:25:01.025Z,20.505371
2022-09-14T07:26:10.752Z,20.515442
2022-09-14T07:27:19.413Z,20.545654
2022-09-14T07:28:28.118Z,20.545654
2022-09-14T07:29:37.788Z,20.575867
2022-09-14T07:30:45.662Z,20.596008
2022-09-14T07:31:55.336Z,20.596008
2022-09-14T07:33:04.130Z,20.646362
2022-09-14T07:34:12.821Z,20.666504
2022-09-14T07:35:22.520Z,20.686646
2022-09-14T07:36:34.528Z,20.74707
2022-09-14T07:37:39.895Z,20.777283
2022-09-14T07:38:52.425Z,20.807495
2022-09-14T07:39:59.314Z,20.837708
2022-09-14T07:41:08.948Z,20.877991
2022-09-14T07:42:17.731Z,20.918274
2022-09-14T07:43:26.397Z,20.958557
2022-09-14T07:44:36.079Z,20.98877
2022-09-14T07:45:44.833Z,21.029053
2022-09-14T07:46:53.486Z,21.069336
2022-09-14T07:48:03.221Z,21.109619
2022-09-14T07:49:11.910Z,21.139832
2022-09-14T07:50:20.644Z,21.180115
2022-09-14T07:51:29.332Z,21.220398
2022-09-14T07:52:38.782Z,21.270752
2022-09-14T07:53:46.702Z,21.321106
2022-09-14T07:54:55.425Z,21.37146
2022-09-14T07:56:04.107Z,21.452026
2022-09-14T07:57:13.835Z,21.512451
2022-09-14T07:58:23.633Z,21.582947
2022-09-14T07:59:37.331Z,21.673584
2022-09-14T08:00:42.919Z,21.774292
2022-09-14T08:01:50.705Z,21.885071
2022-09-14T08:03:00.308Z,21.975708
2022-09-14T08:04:07.980Z,22.106628
2022-09-14T08:05:17.820Z,22.217407
2022-09-14T08:06:26.514Z,22.318115
2022-09-14T08:07:34.202Z,22.428894
2022-09-14T08:08:43.880Z,22.539673
2022-09-14T08:09:53.633Z,22.650452
2022-09-14T08:11:02.347Z,22.75116
2022-09-14T08:12:12.048Z,22.811584
2022-09-14T08:13:19.744Z,22.912292
2022-09-14T08:14:29.467Z,22.982788
2022-09-14T08:15:39.152Z,23.053284
2022-09-14T08:16:47.929Z,23.123779
2022-09-14T08:17:57.583Z,23.214417
2022-09-14T08:19:05.263Z,23.305054
2022-09-14T08:20:12.957Z,23.38562
2022-09-14T08:21:22.682Z,23.456116
2022-09-14T08:22:30.437Z,23.536682
2022-09-14T08:23:39.151Z,23.607178
2022-09-14T08:24:48.856Z,23.707886
2022-09-14T08:25:56.543Z,23.798523
2022-09-14T08:27:06.228Z,23.869019
2022-09-14T08:28:15.923Z,23.909302
2022-09-14T08:29:24.645Z,23.959656
2022-09-14T08:30:34.358Z,23.979797
2022-09-14T08:31:43.087Z,23.949585
2022-09-14T08:32:52.739Z,23.959656
2022-09-14T08:34:02.564Z,23.929443
2022-09-14T08:35:11.255Z,23.959656
2022-09-14T08:36:21.925Z,24.01001
2022-09-14T08:37:30.593Z,24.01001
2022-09-14T08:38:40.273Z,24.020081
2022-09-14T08:39:51.588Z,24.060364
2022-09-14T08:40:56.703Z,24.161072
2022-09-14T08:42:06.422Z,24.26178
2022-09-14T08:43:15.185Z,24.362488
2022-09-14T08:44:23.884Z,24.453125
2022-09-14T08:45:33.663Z,24.533691
2022-09-14T08:46:41.292Z,24.604187
2022-09-14T08:47:51.022Z,24.725037
2022-09-14T08:48:59.716Z,24.835815
2022-09-14T08:50:08.423Z,24.906311
2022-09-14T08:51:18.127Z,25.057373
2022-09-14T08:52:26.793Z,25.208435
2022-09-14T08:53:36.466Z,25.319214
2022-09-14T08:54:46.174Z,25.379639
2022-09-14T08:55:54.955Z,25.409851
2022-09-14T08:57:04.686Z,25.510559
2022-09-14T08:58:14.370Z,25.601196
2022-09-14T08:59:24.060Z,25.681763
2022-09-14T09:00:33.841Z,25.631409
2022-09-14T09:01:41.509Z,25.701904
2022-09-14T09:02:50.234Z,25.722046
2022-09-14T09:03:59.994Z,25.782471
2022-09-14T09:05:08.619Z,25.832825
2022-09-14T09:06:18.311Z,25.913391
2022-09-14T09:07:26.983Z,26.004028
2022-09-14T09:08:34.819Z,26.104736
2022-09-14T09:09:44.672Z,26.205444
2022-09-14T09:10:53.349Z,26.336365
2022-09-14T09:12:03.053Z,26.376648
2022-09-14T09:13:12.734Z,26.507568
2022-09-14T09:14:20.449Z,26.286011
2022-09-14T09:15:30.165Z,26.225586
2022-09-14T09:16:39.901Z,26.104736
2022-09-14T09:17:47.533Z,26.064453
2022-09-14T09:18:57.344Z,26.094666
2022-09-14T09:20:05.948Z,26.14502
2022-09-14T09:21:15.630Z,26.134949
2022-09-14T09:22:25.306Z,26.14502
2022-09-14T09:23:35.998Z,26.185303
2022-09-14T09:24:45.659Z,26.225586
2022-09-14T09:25:53.341Z,26.336365
2022-09-14T09:27:02.033Z,26.437073
2022-09-14T09:28:11.765Z,26.52771
2022-09-14T09:29:21.445Z,26.65863
2022-09-14T09:30:31.157Z,26.809692
2022-09-14T09:31:40.920Z,26.950684
2022-09-14T09:32:49.578Z,27.03125
2022-09-14T09:33:59.262Z,27.001038
2022-09-14T09:35:08.097Z,27.121887
2022-09-14T09:36:15.678Z,27.262878
2022-09-14T09:37:25.466Z,27.202454
2022-09-14T09:38:34.162Z,27.081604
2022-09-14T09:39:42.908Z,26.950684
2022-09-14T09:40:52.538Z,27.03125
2022-09-14T09:42:01.241Z,26.970825
2022-09-14T09:43:10.957Z,26.839905
2022-09-14T09:44:21.669Z,26.729126
2022-09-14T09:45:29.359Z,26.698914
2022-09-14T09:46:39.140Z,26.749268
2022-09-14T09:47:47.785Z,26.749268
2022-09-14T09:48:57.479Z,26.749268
2022-09-14T09:50:07.154Z,26.739197
2022-09-14T09:51:14.857Z,26.628418
2022-09-14T09:52:24.497Z,26.477356
2022-09-14T09:53:34.180Z,26.286011
2022-09-14T09:54:42.865Z,26.205444
2022-09-14T09:55:52.564Z,26.134949
2022-09-14T09:57:01.245Z,26.134949
2022-09-14T09:58:09.943Z,26.064453
2022-09-14T09:59:19.635Z,25.963745
2022-09-14T10:00:27.457Z,25.933533
2022-09-14T10:01:37.266Z,26.054382
2022-09-14T10:02:45.926Z,26.185303
2022-09-14T10:03:54.614Z,26.286011
2022-09-14T10:05:04.348Z,26.356506
2022-09-14T10:06:13.067Z,26.286011
2022-09-14T10:07:21.879Z,26.185303
2022-09-14T10:08:31.455Z,26.15509
2022-09-14T10:09:40.187Z,26.094666
2022-09-14T10:10:49.886Z,26.104736
2022-09-14T10:11:58.683Z,26.185303
2022-09-14T10:13:07.378Z,26.286011
2022-09-14T10:14:17.074Z,26.336365
2022-09-14T10:15:26.756Z,26.306152
2022-09-14T10:16:35.477Z,26.336365
2022-09-14T10:17:45.164Z,26.477356
2022-09-14T10:18:54.154Z,26.618347
2022-09-14T10:20:03.540Z,26.90033
2022-09-14T10:21:13.276Z,27.071533
2022-09-14T10:22:26.341Z,27.293091
2022-09-14T10:23:31.704Z,27.424011
2022-09-14T10:24:40.354Z,27.544861
2022-09-14T10:25:50.079Z,27.585144
2022-09-14T10:26:59.759Z,27.585144
2022-09-14T10:28:08.462Z,27.293091
2022-09-14T10:29:18.217Z,27.111816
2022-09-14T10:30:26.904Z,27.051392
2022-09-14T10:31:36.644Z,27.172241
2022-09-14T10:32:45.315Z,27.293091
2022-09-14T10:33:55.009Z,27.424011
2022-09-14T10:35:04.743Z,27.494507
2022-09-14T10:36:12.451Z,27.595215
2022-09-14T10:37:22.154Z,27.444153
2022-09-14T10:38:31.884Z,27.474365
2022-09-14T10:39:40.711Z,27.363586
2022-09-14T10:40:50.373Z,27.293091
2022-09-14T10:42:00.038Z,27.071533
2022-09-14T10:43:08.749Z,26.920471
2022-09-14T10:44:18.463Z,26.769409
2022-09-14T10:45:26.203Z,26.678772
2022-09-14T10:46:34.981Z,26.578064
2022-09-14T10:47:44.600Z,26.598206
2022-09-14T10:48:52.268Z,26.547852
2022-09-14T10:50:01.935Z,26.517639
2022-09-14T10:51:10.648Z,26.64856
2022-09-14T10:52:18.343Z,26.739197
2022-09-14T10:53:28.009Z,26.729126
2022-09-14T10:54:37.688Z,26.749268
2022-09-14T10:55:47.396Z,26.739197
2022-09-14T10:56:57.108Z,26.557922
2022-09-14T10:58:05.842Z,26.447144
2022-09-14T10:59:15.504Z,26.336365
2022-09-14T11:00:24.194Z,26.376648
2022-09-14T11:01:31.917Z,26.39679
2022-09-14T11:02:41.778Z,26.437073
2022-09-14T11:03:49.403Z,26.356506
2022-09-14T11:04:59.108Z,26.366577
2022-09-14T11:06:08.787Z,26.356506
2022-09-14T11:07:17.457Z,26.447144
2022-09-14T11:08:27.153Z,26.628418
2022-09-14T11:09:35.888Z,26.839905
2022-09-14T11:10:44.646Z,26.970825
2022-09-14T11:11:54.345Z,27.1521
2022-09-14T11:13:03.000Z,27.424011
2022-09-14T11:14:12.991Z,27.625427
2022-09-14T11:15:23.151Z,27.846985
2022-09-14T11:16:31.829Z,27.846985
2022-09-14T11:17:41.515Z,27.66571
2022-09-14T11:18:50.230Z,27.454224
2022-09-14T11:19:58.890Z,27.182312
2022-09-14T11:21:08.601Z,27.172241
2022-09-14T11:22:17.293Z,27.202454
2022-09-14T11:23:25.973Z,27.393799
2022-09-14T11:24:35.659Z,27.645569
2022-09-14T11:25:44.340Z,27.484436
2022-09-14T11:26:54.205Z,27.494507
2022-09-14T11:28:03.516Z,27.66571
2022-09-14T11:29:12.302Z,27.675781
2022-09-14T11:30:21.984Z,27.846985
2022-09-14T11:31:30.729Z,27.998047
2022-09-14T11:32:40.374Z,28.199463
2022-09-14T11:33:50.143Z,28.441162
2022-09-14T11:34:57.772Z,28.592224
2022-09-14T11:36:07.456Z,28.189392
2022-09-14T11:37:16.154Z,27.998047
2022-09-14T11:38:24.852Z,27.776489
2022-09-14T11:39:34.554Z,27.766418
2022-09-14T11:40:42.241Z,27.625427
2022-09-14T11:41:50.940Z,27.544861
2022-09-14T11:43:00.622Z,27.705994
2022-09-14T11:44:08.587Z,28.018188
2022-09-14T11:45:17.147Z,28.189392
2022-09-14T11:46:25.873Z,28.300171
2022-09-14T11:47:34.507Z,28.320312
2022-09-14T11:48:44.365Z,28.370667
2022-09-14T11:49:51.938Z,28.350525
2022-09-14T11:51:00.621Z,28.259888
2022-09-14T11:52:10.326Z,28.2901
2022-09-14T11:53:18.061Z,28.189392
2022-09-14T11:54:26.651Z,28.320312
2022-09-14T11:55:35.377Z,28.451233
2022-09-14T11:56:44.131Z,28.572083
2022-09-14T11:57:53.730Z,28.54187
2022-09-14T11:59:01.410Z,28.54187
2022-09-14T12:00:10.267Z,28.743286
2022-09-14T12:01:19.850Z,28.66272
2022-09-14T12:02:29.627Z,28.723145
2022-09-14T12:03:39.331Z,28.813782
2022-09-14T12:04:47.941Z,28.974915
2022-09-14T12:05:56.628Z,29.156189
2022-09-14T12:07:06.435Z,29.266968
2022-09-14T12:08:14.112Z,29.438171
2022-09-14T12:09:22.839Z,29.710083
2022-09-14T12:10:32.514Z,29.981995
2022-09-14T12:11:42.183Z,30.032349
2022-09-14T12:12:51.885Z,30.163269
2022-09-14T12:14:00.587Z,29.971924
2022-09-14T12:15:08.273Z,29.790649
2022-09-14T12:16:18.069Z,29.589233
2022-09-14T12:17:39.193Z,29.468384
2022-09-14T12:18:37.346Z,29.256897
2022-09-14T12:19:47.016Z,29.337463
2022-09-14T12:20:55.713Z,29.236755
2022-09-14T12:22:05.404Z,29.377747
2022-09-14T12:23:14.097Z,29.468384
2022-09-14T12:24:21.997Z,29.538879
2022-09-14T12:25:31.677Z,29.689941
2022-09-14T12:26:39.356Z,29.790649
2022-09-14T12:27:48.128Z,29.911499
2022-09-14T12:28:57.722Z,29.881287
2022-09-14T12:30:06.469Z,29.810791
2022-09-14T12:31:16.171Z,29.538879
2022-09-14T12:32:23.838Z,29.357605
2022-09-14T12:33:33.521Z,29.035339
2022-09-14T12:34:42.154Z,29.04541
2022-09-14T12:35:49.980Z,28.823853
2022-09-14T12:36:59.710Z,28.642578
2022-09-14T12:38:07.402Z,28.642578
2022-09-14T12:39:16.076Z,28.672791
2022-09-14T12:40:25.804Z,28.692932
2022-09-14T12:41:34.475Z,28.723145
2022-09-14T12:42:44.184Z,28.743286
2022-09-14T12:43:52.851Z,28.783569
2022-09-14T12:45:00.511Z,28.743286
2022-09-14T12:46:10.264Z,28.672791
2022-09-14T12:47:17.914Z,28.723145
2022-09-14T12:48:27.657Z,28.763428
2022-09-14T12:49:37.301Z,28.703003
2022-09-14T12:50:45.978Z,28.441162
2022-09-14T12:51:55.656Z,28.16925
2022-09-14T12:53:05.565Z,28.018188
2022-09-14T12:54:15.247Z,27.826843
2022-09-14T12:55:24.932Z,27.645569
2022-09-14T12:56:33.721Z,27.575073
2022-09-14T12:57:42.445Z,27.444153
2022-09-14T12:58:52.294Z,27.333374
2022-09-14T12:59:59.977Z,27.353516
2022-09-14T13:01:09.719Z,27.333374
2022-09-14T13:02:18.476Z,27.333374
2022-09-14T13:03:26.035Z,27.272949
2022-09-14T13:04:35.783Z,27.1521
2022-09-14T13:05:45.445Z,27.121887
2022-09-14T13:06:55.110Z,27.051392
2022-09-14T13:08:04.798Z,27.071533
2022-09-14T13:09:12.486Z,27.03125
2022-09-14T13:10:22.233Z,26.950684
2022-09-14T13:11:30.883Z,26.849976